sensor_id;sensor_type;location;lat;lon;timestamp;P1;durP1;ratioP1;P2;durP2;ratioP2
43160;SDS011;40968;52.342;5.528;2022-11-18T00:00:46;9.40;;;3.35;;
43160;SDS011;40968;52.342;5.528;2022-11-18T00:03:14;9.77;;;3.20;;
43160;SDS011;40968;52.342;5.528;2022-11-18T00:05:41;10.48;;;3.60;;
43160;SDS011;40968;52.342;5.528;2022-11-18T00:08:07;15.15;;;3.67;;
43160;SDS011;40968;52.342;5.528;2022-11-18T00:10:35;11.25;;;3.20;;
43160;SDS011;40968;52.342;5.528;2022-11-18T00:13:02;7.68;;;3.00;;
43160;SDS011;40968;52.342;5.528;2022-11-18T00:15:46;8.75;;;3.13;;
43160;SDS011;40968;52.342;5.528;2022-11-18T00:18:14;9.05;;;3.20;;
43160;SDS011;40968;52.342;5.528;2022-11-18T00:20:41;10.48;;;3.53;;
43160;SDS011;40968;52.342;5.528;2022-11-18T00:23:07;6.93;;;2.80;;
43160;SDS011;40968;52.342;5.528;2022-11-18T00:25:34;9.60;;;3.55;;
43160;SDS011;40968;52.342;5.528;2022-11-18T00:28:00;10.63;;;3.47;;
43160;SDS011;40968;52.342;5.528;2022-11-18T00:30:27;10.18;;;3.20;;
43160;SDS011;40968;52.342;5.528;2022-11-18T00:32:53;8.23;;;3.30;;
43160;SDS011;40968;52.342;5.528;2022-11-18T00:35:22;10.00;;;3.30;;
43160;SDS011;40968;52.342;5.528;2022-11-18T00:37:48;9.27;;;3.88;;
43160;SDS011;40968;52.342;5.528;2022-11-18T00:40:15;8.98;;;3.28;;
43160;SDS011;40968;52.342;5.528;2022-11-18T00:42:42;10.77;;;3.22;;
43160;SDS011;40968;52.342;5.528;2022-11-18T00:45:17;9.68;;;3.40;;
43160;SDS011;40968;52.342;5.528;2022-11-18T00:47:44;7.43;;;3.20;;
43160;SDS011;40968;52.342;5.528;2022-11-18T00:50:10;14.38;;;3.47;;
43160;SDS011;40968;52.342;5.528;2022-11-18T00:52:39;13.45;;;3.78;;
43160;SDS011;40968;52.342;5.528;2022-11-18T00:55:06;19.15;;;3.50;;
43160;SDS011;40968;52.342;5.528;2022-11-18T00:57:33;9.43;;;3.40;;
43160;SDS011;40968;52.342;5.528;2022-11-18T00:59:59;9.88;;;3.65;;
43160;SDS011;40968;52.342;5.528;2022-11-18T01:02:26;9.40;;;3.63;;
43160;SDS011;40968;52.342;5.528;2022-11-18T01:04:52;12.77;;;3.72;;
43160;SDS011;40968;52.342;5.528;2022-11-18T01:07:19;11.02;;;3.90;;
43160;SDS011;40968;52.342;5.528;2022-11-18T01:09:47;10.45;;;3.50;;
43160;SDS011;40968;52.342;5.528;2022-11-18T01:12:13;10.68;;;3.58;;
43160;SDS011;40968;52.342;5.528;2022-11-18T01:14:58;11.15;;;3.63;;
43160;SDS011;40968;52.342;5.528;2022-11-18T01:17:24;11.68;;;3.17;;
43160;SDS011;40968;52.342;5.528;2022-11-18T01:19:51;9.10;;;3.42;;
43160;SDS011;40968;52.342;5.528;2022-11-18T01:22:17;13.68;;;3.35;;
43160;SDS011;40968;52.342;5.528;2022-11-18T01:24:44;8.95;;;3.00;;
43160;SDS011;40968;52.342;5.528;2022-11-18T01:27:12;10.57;;;4.05;;
43160;SDS011;40968;52.342;5.528;2022-11-18T01:29:38;9.50;;;2.97;;
43160;SDS011;40968;52.342;5.528;2022-11-18T01:32:05;9.27;;;3.58;;
43160;SDS011;40968;52.342;5.528;2022-11-18T01:34:32;8.20;;;3.47;;
43160;SDS011;40968;52.342;5.528;2022-11-18T01:36:58;11.38;;;3.65;;
43160;SDS011;40968;52.342;5.528;2022-11-18T01:39:25;6.45;;;3.22;;
43160;SDS011;40968;52.342;5.528;2022-11-18T01:41:51;8.65;;;3.28;;
43160;SDS011;40968;52.342;5.528;2022-11-18T01:47:24;9.98;;;4.13;;
43160;SDS011;40968;52.342;5.528;2022-11-18T01:49:53;9.40;;;3.88;;
43160;SDS011;40968;52.342;5.528;2022-11-18T01:52:20;10.30;;;3.60;;
43160;SDS011;40968;52.342;5.528;2022-11-18T01:54:48;10.45;;;3.72;;
43160;SDS011;40968;52.342;5.528;2022-11-18T01:57:21;9.52;;;3.13;;
43160;SDS011;40968;52.342;5.528;2022-11-18T01:59:52;14.68;;;3.90;;
43160;SDS011;40968;52.342;5.528;2022-11-18T02:02:23;10.13;;;3.45;;
43160;SDS011;40968;52.342;5.528;2022-11-18T02:04:52;8.35;;;3.88;;
43160;SDS011;40968;52.342;5.528;2022-11-18T02:07:22;9.23;;;3.45;;
43160;SDS011;40968;52.342;5.528;2022-11-18T02:09:50;12.65;;;4.00;;
43160;SDS011;40968;52.342;5.528;2022-11-18T02:12:18;12.85;;;3.75;;
43160;SDS011;40968;52.342;5.528;2022-11-18T02:14:45;13.50;;;3.63;;
43160;SDS011;40968;52.342;5.528;2022-11-18T02:17:14;10.43;;;3.15;;
43160;SDS011;40968;52.342;5.528;2022-11-18T02:19:58;9.63;;;3.40;;
43160;SDS011;40968;52.342;5.528;2022-11-18T02:22:44;9.93;;;3.60;;
43160;SDS011;40968;52.342;5.528;2022-11-18T02:25:26;13.40;;;4.03;;
43160;SDS011;40968;52.342;5.528;2022-11-18T02:28:05;11.45;;;3.55;;
43160;SDS011;40968;52.342;5.528;2022-11-18T02:30:52;12.65;;;3.95;;
43160;SDS011;40968;52.342;5.528;2022-11-18T02:33:24;9.35;;;3.70;;
43160;SDS011;40968;52.342;5.528;2022-11-18T02:35:55;10.18;;;3.83;;
43160;SDS011;40968;52.342;5.528;2022-11-18T02:38:23;5.72;;;3.10;;
43160;SDS011;40968;52.342;5.528;2022-11-18T02:40:57;14.13;;;3.85;;
43160;SDS011;40968;52.342;5.528;2022-11-18T02:45:57;12.55;;;4.45;;
43160;SDS011;40968;52.342;5.528;2022-11-18T02:48:27;15.65;;;3.65;;
43160;SDS011;40968;52.342;5.528;2022-11-18T02:53:26;11.63;;;3.92;;
43160;SDS011;40968;52.342;5.528;2022-11-18T02:55:56;12.40;;;4.30;;
43160;SDS011;40968;52.342;5.528;2022-11-18T02:58:25;10.15;;;3.97;;
43160;SDS011;40968;52.342;5.528;2022-11-18T03:00:52;14.38;;;5.35;;
43160;SDS011;40968;52.342;5.528;2022-11-18T03:03:25;13.45;;;4.18;;
43160;SDS011;40968;52.342;5.528;2022-11-18T03:05:56;11.48;;;4.18;;
43160;SDS011;40968;52.342;5.528;2022-11-18T03:08:29;12.18;;;4.03;;
43160;SDS011;40968;52.342;5.528;2022-11-18T03:11:02;16.25;;;4.80;;
43160;SDS011;40968;52.342;5.528;2022-11-18T03:13:37;18.00;;;4.97;;
43160;SDS011;40968;52.342;5.528;2022-11-18T03:16:15;9.98;;;4.30;;
43160;SDS011;40968;52.342;5.528;2022-11-18T03:18:51;12.10;;;4.32;;
43160;SDS011;40968;52.342;5.528;2022-11-18T03:21:21;14.10;;;4.68;;
43160;SDS011;40968;52.342;5.528;2022-11-18T03:23:56;16.30;;;4.40;;
43160;SDS011;40968;52.342;5.528;2022-11-18T03:26:28;11.02;;;3.67;;
43160;SDS011;40968;52.342;5.528;2022-11-18T03:31:28;11.38;;;3.70;;
43160;SDS011;40968;52.342;5.528;2022-11-18T03:34:00;12.13;;;4.18;;
43160;SDS011;40968;52.342;5.528;2022-11-18T03:36:31;11.48;;;4.00;;
43160;SDS011;40968;52.342;5.528;2022-11-18T03:39:03;11.23;;;4.13;;
43160;SDS011;40968;52.342;5.528;2022-11-18T03:41:33;11.35;;;3.97;;
43160;SDS011;40968;52.342;5.528;2022-11-18T03:44:04;12.75;;;4.05;;
43160;SDS011;40968;52.342;5.528;2022-11-18T03:46:35;12.10;;;4.70;;
43160;SDS011;40968;52.342;5.528;2022-11-18T03:49:07;13.32;;;4.43;;
43160;SDS011;40968;52.342;5.528;2022-11-18T03:51:39;15.48;;;4.43;;
43160;SDS011;40968;52.342;5.528;2022-11-18T03:54:09;19.00;;;4.32;;
43160;SDS011;40968;52.342;5.528;2022-11-18T03:56:40;12.10;;;4.15;;
43160;SDS011;40968;52.342;5.528;2022-11-18T03:59:10;11.50;;;4.35;;
43160;SDS011;40968;52.342;5.528;2022-11-18T04:01:41;15.07;;;4.57;;
43160;SDS011;40968;52.342;5.528;2022-11-18T04:04:13;11.43;;;4.18;;
43160;SDS011;40968;52.342;5.528;2022-11-18T04:06:40;17.73;;;3.85;;
43160;SDS011;40968;52.342;5.528;2022-11-18T04:09:12;9.23;;;4.32;;
43160;SDS011;40968;52.342;5.528;2022-11-18T04:11:43;12.05;;;4.15;;
43160;SDS011;40968;52.342;5.528;2022-11-18T04:14:28;18.13;;;5.07;;
43160;SDS011;40968;52.342;5.528;2022-11-18T04:16:57;13.07;;;4.85;;
43160;SDS011;40968;52.342;5.528;2022-11-18T04:19:25;14.35;;;4.55;;
43160;SDS011;40968;52.342;5.528;2022-11-18T04:21:51;14.50;;;4.72;;
43160;SDS011;40968;52.342;5.528;2022-11-18T04:24:18;11.60;;;3.83;;
43160;SDS011;40968;52.342;5.528;2022-11-18T04:26:44;17.67;;;4.93;;
43160;SDS011;40968;52.342;5.528;2022-11-18T04:29:11;15.38;;;4.47;;
43160;SDS011;40968;52.342;5.528;2022-11-18T04:31:37;20.23;;;4.95;;
43160;SDS011;40968;52.342;5.528;2022-11-18T04:34:04;9.43;;;4.45;;
43160;SDS011;40968;52.342;5.528;2022-11-18T04:36:32;14.50;;;4.20;;
43160;SDS011;40968;52.342;5.528;2022-11-18T04:38:58;13.77;;;4.55;;
43160;SDS011;40968;52.342;5.528;2022-11-18T04:41:25;18.27;;;4.10;;
43160;SDS011;40968;52.342;5.528;2022-11-18T04:44:05;13.35;;;3.88;;
43160;SDS011;40968;52.342;5.528;2022-11-18T04:49:03;13.85;;;4.45;;
43160;SDS011;40968;52.342;5.528;2022-11-18T04:51:29;9.65;;;4.38;;
43160;SDS011;40968;52.342;5.528;2022-11-18T04:53:57;23.02;;;5.47;;
43160;SDS011;40968;52.342;5.528;2022-11-18T04:56:24;12.00;;;4.22;;
43160;SDS011;40968;52.342;5.528;2022-11-18T04:58:50;14.48;;;4.60;;
43160;SDS011;40968;52.342;5.528;2022-11-18T05:01:17;13.15;;;4.05;;
43160;SDS011;40968;52.342;5.528;2022-11-18T05:03:43;13.05;;;4.47;;
43160;SDS011;40968;52.342;5.528;2022-11-18T05:06:10;18.52;;;4.47;;
43160;SDS011;40968;52.342;5.528;2022-11-18T05:08:37;17.70;;;4.22;;
43160;SDS011;40968;52.342;5.528;2022-11-18T05:11:06;12.13;;;4.90;;
43160;SDS011;40968;52.342;5.528;2022-11-18T05:13:48;10.82;;;4.88;;
43160;SDS011;40968;52.342;5.528;2022-11-18T05:16:15;20.13;;;5.50;;
43160;SDS011;40968;52.342;5.528;2022-11-18T05:18:42;15.20;;;4.40;;
43160;SDS011;40968;52.342;5.528;2022-11-18T05:21:09;13.80;;;4.30;;
43160;SDS011;40968;52.342;5.528;2022-11-18T05:23:36;12.07;;;4.55;;
43160;SDS011;40968;52.342;5.528;2022-11-18T05:26:03;12.30;;;4.10;;
43160;SDS011;40968;52.342;5.528;2022-11-18T05:28:31;16.80;;;5.82;;
43160;SDS011;40968;52.342;5.528;2022-11-18T05:30:57;21.95;;;5.13;;
43160;SDS011;40968;52.342;5.528;2022-11-18T05:33:24;12.45;;;4.32;;
43160;SDS011;40968;52.342;5.528;2022-11-18T05:35:51;14.27;;;4.47;;
43160;SDS011;40968;52.342;5.528;2022-11-18T05:38:17;17.27;;;5.10;;
43160;SDS011;40968;52.342;5.528;2022-11-18T05:40:44;16.75;;;4.05;;
43160;SDS011;40968;52.342;5.528;2022-11-18T05:43:11;13.02;;;4.72;;
43160;SDS011;40968;52.342;5.528;2022-11-18T05:45:38;20.95;;;5.45;;
43160;SDS011;40968;52.342;5.528;2022-11-18T05:48:06;16.35;;;5.15;;
43160;SDS011;40968;52.342;5.528;2022-11-18T05:50:34;13.07;;;4.68;;
43160;SDS011;40968;52.342;5.528;2022-11-18T05:53:02;13.85;;;5.18;;
43160;SDS011;40968;52.342;5.528;2022-11-18T05:55:30;15.05;;;4.97;;
43160;SDS011;40968;52.342;5.528;2022-11-18T05:58:02;15.13;;;4.32;;
43160;SDS011;40968;52.342;5.528;2022-11-18T06:00:28;14.65;;;4.50;;
43160;SDS011;40968;52.342;5.528;2022-11-18T06:02:57;14.45;;;4.82;;
43160;SDS011;40968;52.342;5.528;2022-11-18T06:05:25;18.65;;;5.00;;
43160;SDS011;40968;52.342;5.528;2022-11-18T06:07:52;13.25;;;4.68;;
43160;SDS011;40968;52.342;5.528;2022-11-18T06:10:23;16.35;;;4.68;;
43160;SDS011;40968;52.342;5.528;2022-11-18T06:12:54;17.42;;;5.00;;
43160;SDS011;40968;52.342;5.528;2022-11-18T06:15:26;15.65;;;4.85;;
43160;SDS011;40968;52.342;5.528;2022-11-18T06:18:00;11.05;;;4.63;;
43160;SDS011;40968;52.342;5.528;2022-11-18T06:20:30;16.92;;;5.20;;
43160;SDS011;40968;52.342;5.528;2022-11-18T06:23:00;11.77;;;4.80;;
43160;SDS011;40968;52.342;5.528;2022-11-18T06:25:26;13.57;;;5.07;;
43160;SDS011;40968;52.342;5.528;2022-11-18T06:27:54;18.58;;;4.82;;
43160;SDS011;40968;52.342;5.528;2022-11-18T06:30:24;13.07;;;4.60;;
43160;SDS011;40968;52.342;5.528;2022-11-18T06:32:50;11.20;;;4.65;;
43160;SDS011;40968;52.342;5.528;2022-11-18T06:35:18;12.27;;;4.82;;
43160;SDS011;40968;52.342;5.528;2022-11-18T06:37:45;10.52;;;4.88;;
43160;SDS011;40968;52.342;5.528;2022-11-18T06:40:12;17.30;;;5.32;;
43160;SDS011;40968;52.342;5.528;2022-11-18T06:42:38;15.38;;;5.30;;
43160;SDS011;40968;52.342;5.528;2022-11-18T06:45:23;17.88;;;5.40;;
43160;SDS011;40968;52.342;5.528;2022-11-18T06:47:49;15.95;;;5.10;;
43160;SDS011;40968;52.342;5.528;2022-11-18T06:50:16;18.80;;;5.22;;
43160;SDS011;40968;52.342;5.528;2022-11-18T06:52:44;15.80;;;5.07;;
43160;SDS011;40968;52.342;5.528;2022-11-18T06:55:10;14.45;;;4.60;;
43160;SDS011;40968;52.342;5.528;2022-11-18T06:57:37;14.40;;;4.70;;
43160;SDS011;40968;52.342;5.528;2022-11-18T07:00:04;16.55;;;5.03;;
43160;SDS011;40968;52.342;5.528;2022-11-18T07:02:31;14.43;;;4.93;;
43160;SDS011;40968;52.342;5.528;2022-11-18T07:05:01;12.73;;;5.43;;
43160;SDS011;40968;52.342;5.528;2022-11-18T07:07:27;14.57;;;4.70;;
43160;SDS011;40968;52.342;5.528;2022-11-18T07:09:55;17.73;;;5.20;;
43160;SDS011;40968;52.342;5.528;2022-11-18T07:12:22;14.15;;;5.43;;
43160;SDS011;40968;52.342;5.528;2022-11-18T07:14:48;15.15;;;5.25;;
43160;SDS011;40968;52.342;5.528;2022-11-18T07:17:15;17.17;;;5.20;;
43160;SDS011;40968;52.342;5.528;2022-11-18T07:19:41;11.07;;;5.10;;
43160;SDS011;40968;52.342;5.528;2022-11-18T07:22:08;15.07;;;4.97;;
43160;SDS011;40968;52.342;5.528;2022-11-18T07:24:35;17.13;;;5.25;;
43160;SDS011;40968;52.342;5.528;2022-11-18T07:27:03;20.40;;;6.30;;
43160;SDS011;40968;52.342;5.528;2022-11-18T07:29:29;15.73;;;5.57;;
43160;SDS011;40968;52.342;5.528;2022-11-18T07:31:56;19.20;;;5.85;;
43160;SDS011;40968;52.342;5.528;2022-11-18T07:34:23;22.58;;;6.53;;
43160;SDS011;40968;52.342;5.528;2022-11-18T07:36:50;13.60;;;4.40;;
43160;SDS011;40968;52.342;5.528;2022-11-18T07:39:16;17.20;;;6.00;;
43160;SDS011;40968;52.342;5.528;2022-11-18T07:41:43;22.95;;;6.28;;
43160;SDS011;40968;52.342;5.528;2022-11-18T07:44:11;14.65;;;6.00;;
43160;SDS011;40968;52.342;5.528;2022-11-18T07:46:38;15.40;;;5.40;;
43160;SDS011;40968;52.342;5.528;2022-11-18T07:49:05;18.58;;;6.38;;
43160;SDS011;40968;52.342;5.528;2022-11-18T07:51:34;19.17;;;6.28;;
43160;SDS011;40968;52.342;5.528;2022-11-18T07:54:04;20.00;;;5.90;;
43160;SDS011;40968;52.342;5.528;2022-11-18T07:56:31;20.95;;;6.53;;
43160;SDS011;40968;52.342;5.528;2022-11-18T07:58:57;18.80;;;5.95;;
43160;SDS011;40968;52.342;5.528;2022-11-18T08:01:25;16.42;;;5.72;;
43160;SDS011;40968;52.342;5.528;2022-11-18T08:03:52;20.70;;;5.85;;
43160;SDS011;40968;52.342;5.528;2022-11-18T08:06:19;13.43;;;5.53;;
43160;SDS011;40968;52.342;5.528;2022-11-18T08:08:46;15.88;;;5.78;;
43160;SDS011;40968;52.342;5.528;2022-11-18T08:11:13;16.17;;;5.55;;
43160;SDS011;40968;52.342;5.528;2022-11-18T08:13:41;15.68;;;5.55;;
43160;SDS011;40968;52.342;5.528;2022-11-18T08:16:10;14.20;;;5.57;;
43160;SDS011;40968;52.342;5.528;2022-11-18T08:18:41;17.63;;;6.18;;
43160;SDS011;40968;52.342;5.528;2022-11-18T08:21:07;16.67;;;5.85;;
43160;SDS011;40968;52.342;5.528;2022-11-18T08:23:34;15.80;;;6.05;;
43160;SDS011;40968;52.342;5.528;2022-11-18T08:26:02;24.05;;;6.03;;
43160;SDS011;40968;52.342;5.528;2022-11-18T08:28:30;15.57;;;5.45;;
43160;SDS011;40968;52.342;5.528;2022-11-18T08:30:57;18.70;;;6.15;;
43160;SDS011;40968;52.342;5.528;2022-11-18T08:33:23;12.05;;;4.95;;
43160;SDS011;40968;52.342;5.528;2022-11-18T08:35:51;16.77;;;5.68;;
43160;SDS011;40968;52.342;5.528;2022-11-18T08:38:18;14.43;;;5.28;;
43160;SDS011;40968;52.342;5.528;2022-11-18T08:40:45;18.35;;;6.00;;
43160;SDS011;40968;52.342;5.528;2022-11-18T08:43:12;12.02;;;5.15;;
43160;SDS011;40968;52.342;5.528;2022-11-18T08:45:41;20.92;;;5.55;;
43160;SDS011;40968;52.342;5.528;2022-11-18T08:48:08;14.90;;;4.88;;
43160;SDS011;40968;52.342;5.528;2022-11-18T08:50:34;14.63;;;5.10;;
43160;SDS011;40968;52.342;5.528;2022-11-18T08:53:02;21.27;;;5.97;;
43160;SDS011;40968;52.342;5.528;2022-11-18T08:55:29;17.10;;;5.50;;
43160;SDS011;40968;52.342;5.528;2022-11-18T08:57:55;19.23;;;5.15;;
43160;SDS011;40968;52.342;5.528;2022-11-18T09:00:22;12.45;;;4.80;;
43160;SDS011;40968;52.342;5.528;2022-11-18T09:02:49;14.65;;;5.63;;
43160;SDS011;40968;52.342;5.528;2022-11-18T09:05:15;11.85;;;4.78;;
43160;SDS011;40968;52.342;5.528;2022-11-18T09:07:43;20.92;;;4.70;;
43160;SDS011;40968;52.342;5.528;2022-11-18T09:10:11;13.32;;;4.53;;
43160;SDS011;40968;52.342;5.528;2022-11-18T09:12:37;16.40;;;5.57;;
43160;SDS011;40968;52.342;5.528;2022-11-18T09:15:04;25.27;;;4.93;;
43160;SDS011;40968;52.342;5.528;2022-11-18T09:17:32;12.77;;;4.85;;
43160;SDS011;40968;52.342;5.528;2022-11-18T09:19:59;12.60;;;4.30;;
43160;SDS011;40968;52.342;5.528;2022-11-18T09:22:25;26.13;;;5.13;;
43160;SDS011;40968;52.342;5.528;2022-11-18T09:24:52;10.65;;;4.30;;
43160;SDS011;40968;52.342;5.528;2022-11-18T09:27:20;20.00;;;4.63;;
43160;SDS011;40968;52.342;5.528;2022-11-18T09:29:46;19.77;;;5.35;;
43160;SDS011;40968;52.342;5.528;2022-11-18T09:32:13;14.32;;;4.47;;
43160;SDS011;40968;52.342;5.528;2022-11-18T09:34:40;11.68;;;3.80;;
43160;SDS011;40968;52.342;5.528;2022-11-18T09:37:06;11.52;;;4.05;;
43160;SDS011;40968;52.342;5.528;2022-11-18T09:39:33;13.75;;;4.72;;
43160;SDS011;40968;52.342;5.528;2022-11-18T09:42:04;16.73;;;3.80;;
43160;SDS011;40968;52.342;5.528;2022-11-18T09:44:58;16.90;;;4.90;;
43160;SDS011;40968;52.342;5.528;2022-11-18T09:47:35;13.18;;;4.47;;
43160;SDS011;40968;52.342;5.528;2022-11-18T09:50:03;14.10;;;4.25;;
43160;SDS011;40968;52.342;5.528;2022-11-18T09:52:32;13.85;;;4.00;;
43160;SDS011;40968;52.342;5.528;2022-11-18T09:55:03;10.63;;;4.05;;
43160;SDS011;40968;52.342;5.528;2022-11-18T09:57:38;14.20;;;4.22;;
43160;SDS011;40968;52.342;5.528;2022-11-18T10:00:12;12.52;;;4.15;;
43160;SDS011;40968;52.342;5.528;2022-11-18T10:02:42;14.85;;;4.50;;
43160;SDS011;40968;52.342;5.528;2022-11-18T10:05:19;11.77;;;4.13;;
43160;SDS011;40968;52.342;5.528;2022-11-18T10:08:05;12.87;;;3.67;;
43160;SDS011;40968;52.342;5.528;2022-11-18T10:10:43;13.13;;;3.92;;
43160;SDS011;40968;52.342;5.528;2022-11-18T10:13:23;13.15;;;3.53;;
43160;SDS011;40968;52.342;5.528;2022-11-18T10:15:59;18.75;;;4.05;;
43160;SDS011;40968;52.342;5.528;2022-11-18T10:18:33;9.43;;;4.05;;
43160;SDS011;40968;52.342;5.528;2022-11-18T10:21:16;9.25;;;3.60;;
43160;SDS011;40968;52.342;5.528;2022-11-18T10:23:49;19.67;;;4.25;;
43160;SDS011;40968;52.342;5.528;2022-11-18T10:26:32;11.95;;;3.80;;
43160;SDS011;40968;52.342;5.528;2022-11-18T10:29:00;15.88;;;3.75;;
43160;SDS011;40968;52.342;5.528;2022-11-18T10:31:27;13.98;;;4.13;;
43160;SDS011;40968;52.342;5.528;2022-11-18T10:33:57;13.30;;;3.30;;
43160;SDS011;40968;52.342;5.528;2022-11-18T10:36:26;13.82;;;3.85;;
43160;SDS011;40968;52.342;5.528;2022-11-18T10:39:04;17.70;;;5.10;;
43160;SDS011;40968;52.342;5.528;2022-11-18T10:44:28;21.02;;;4.90;;
43160;SDS011;40968;52.342;5.528;2022-11-18T10:47:23;26.08;;;6.30;;
43160;SDS011;40968;52.342;5.528;2022-11-18T10:49:52;17.05;;;4.50;;
43160;SDS011;40968;52.342;5.528;2022-11-18T10:52:22;11.90;;;3.40;;
43160;SDS011;40968;52.342;5.528;2022-11-18T10:57:43;13.55;;;4.43;;
43160;SDS011;40968;52.342;5.528;2022-11-18T11:03:25;12.55;;;4.35;;
43160;SDS011;40968;52.342;5.528;2022-11-18T11:06:20;14.70;;;4.28;;
43160;SDS011;40968;52.342;5.528;2022-11-18T11:09:24;15.95;;;4.00;;
43160;SDS011;40968;52.342;5.528;2022-11-18T11:11:57;24.17;;;4.55;;
43160;SDS011;40968;52.342;5.528;2022-11-18T11:14:26;14.20;;;4.03;;
43160;SDS011;40968;52.342;5.528;2022-11-18T11:16:58;12.95;;;4.28;;
43160;SDS011;40968;52.342;5.528;2022-11-18T11:19:32;12.73;;;4.18;;
43160;SDS011;40968;52.342;5.528;2022-11-18T11:22:07;12.93;;;4.22;;
43160;SDS011;40968;52.342;5.528;2022-11-18T11:24:37;15.18;;;4.28;;
43160;SDS011;40968;52.342;5.528;2022-11-18T11:27:20;11.75;;;4.90;;
43160;SDS011;40968;52.342;5.528;2022-11-18T11:30:01;16.73;;;4.55;;
43160;SDS011;40968;52.342;5.528;2022-11-18T11:32:33;15.75;;;4.25;;
43160;SDS011;40968;52.342;5.528;2022-11-18T11:35:28;9.55;;;3.72;;
43160;SDS011;40968;52.342;5.528;2022-11-18T11:37:59;12.75;;;4.38;;
43160;SDS011;40968;52.342;5.528;2022-11-18T11:40:33;9.38;;;3.38;;
43160;SDS011;40968;52.342;5.528;2022-11-18T11:43:08;14.20;;;3.90;;
43160;SDS011;40968;52.342;5.528;2022-11-18T11:45:52;11.68;;;3.65;;
43160;SDS011;40968;52.342;5.528;2022-11-18T11:48:31;14.63;;;4.65;;
43160;SDS011;40968;52.342;5.528;2022-11-18T11:51:07;13.32;;;4.78;;
43160;SDS011;40968;52.342;5.528;2022-11-18T11:53:51;18.10;;;4.20;;
43160;SDS011;40968;52.342;5.528;2022-11-18T11:56:32;9.48;;;3.97;;
43160;SDS011;40968;52.342;5.528;2022-11-18T11:59:08;17.90;;;4.80;;
43160;SDS011;40968;52.342;5.528;2022-11-18T12:01:45;12.25;;;4.28;;
43160;SDS011;40968;52.342;5.528;2022-11-18T12:04:23;19.23;;;4.13;;
43160;SDS011;40968;52.342;5.528;2022-11-18T12:06:58;12.02;;;3.90;;
43160;SDS011;40968;52.342;5.528;2022-11-18T12:09:27;12.32;;;3.95;;
43160;SDS011;40968;52.342;5.528;2022-11-18T12:12:06;7.47;;;3.15;;
43160;SDS011;40968;52.342;5.528;2022-11-18T12:14:52;24.70;;;5.30;;
43160;SDS011;40968;52.342;5.528;2022-11-18T12:17:23;10.95;;;3.80;;
43160;SDS011;40968;52.342;5.528;2022-11-18T12:19:55;16.63;;;4.10;;
43160;SDS011;40968;52.342;5.528;2022-11-18T12:22:22;15.73;;;4.72;;
43160;SDS011;40968;52.342;5.528;2022-11-18T12:24:49;15.73;;;3.95;;
43160;SDS011;40968;52.342;5.528;2022-11-18T12:30:17;14.30;;;3.88;;
43160;SDS011;40968;52.342;5.528;2022-11-18T12:32:44;26.70;;;4.20;;
43160;SDS011;40968;52.342;5.528;2022-11-18T12:35:21;14.50;;;4.85;;
43160;SDS011;40968;52.342;5.528;2022-11-18T12:38:01;15.95;;;4.57;;
43160;SDS011;40968;52.342;5.528;2022-11-18T12:40:39;13.32;;;4.10;;
43160;SDS011;40968;52.342;5.528;2022-11-18T12:43:11;8.98;;;4.22;;
43160;SDS011;40968;52.342;5.528;2022-11-18T12:52:46;16.30;;;4.20;;
43160;SDS011;40968;52.342;5.528;2022-11-18T12:55:15;12.57;;;4.70;;
43160;SDS011;40968;52.342;5.528;2022-11-18T12:57:45;13.98;;;4.72;;
43160;SDS011;40968;52.342;5.528;2022-11-18T13:00:17;13.85;;;5.15;;
43160;SDS011;40968;52.342;5.528;2022-11-18T13:02:53;15.13;;;5.20;;
43160;SDS011;40968;52.342;5.528;2022-11-18T13:05:22;14.48;;;4.30;;
43160;SDS011;40968;52.342;5.528;2022-11-18T13:07:51;16.13;;;5.15;;
43160;SDS011;40968;52.342;5.528;2022-11-18T13:10:43;11.70;;;5.15;;
43160;SDS011;40968;52.342;5.528;2022-11-18T13:13:19;18.95;;;5.20;;
43160;SDS011;40968;52.342;5.528;2022-11-18T13:15:50;13.18;;;4.55;;
43160;SDS011;40968;52.342;5.528;2022-11-18T13:18:45;16.15;;;4.93;;
43160;SDS011;40968;52.342;5.528;2022-11-18T13:21:18;14.73;;;5.05;;
43160;SDS011;40968;52.342;5.528;2022-11-18T13:24:05;15.23;;;4.90;;
43160;SDS011;40968;52.342;5.528;2022-11-18T13:26:32;14.38;;;5.45;;
43160;SDS011;40968;52.342;5.528;2022-11-18T13:29:03;26.63;;;5.13;;
43160;SDS011;40968;52.342;5.528;2022-11-18T13:31:48;18.27;;;5.22;;
43160;SDS011;40968;52.342;5.528;2022-11-18T13:34:24;12.52;;;5.30;;
43160;SDS011;40968;52.342;5.528;2022-11-18T13:36:52;21.48;;;5.45;;
43160;SDS011;40968;52.342;5.528;2022-11-18T13:39:22;16.25;;;5.70;;
43160;SDS011;40968;52.342;5.528;2022-11-18T13:41:57;13.00;;;5.03;;
43160;SDS011;40968;52.342;5.528;2022-11-18T13:44:25;12.88;;;5.00;;
43160;SDS011;40968;52.342;5.528;2022-11-18T13:46:54;16.05;;;5.18;;
43160;SDS011;40968;52.342;5.528;2022-11-18T13:49:41;12.20;;;5.22;;
43160;SDS011;40968;52.342;5.528;2022-11-18T13:52:14;10.85;;;4.63;;
43160;SDS011;40968;52.342;5.528;2022-11-18T13:54:49;15.45;;;4.90;;
43160;SDS011;40968;52.342;5.528;2022-11-18T13:57:18;23.73;;;5.78;;
43160;SDS011;40968;52.342;5.528;2022-11-18T13:59:47;21.08;;;5.38;;
43160;SDS011;40968;52.342;5.528;2022-11-18T14:02:14;14.88;;;5.40;;
43160;SDS011;40968;52.342;5.528;2022-11-18T14:04:50;17.77;;;4.85;;
43160;SDS011;40968;52.342;5.528;2022-11-18T14:07:24;14.98;;;5.47;;
43160;SDS011;40968;52.342;5.528;2022-11-18T14:09:56;21.50;;;5.45;;
43160;SDS011;40968;52.342;5.528;2022-11-18T14:17:48;13.23;;;5.38;;
43160;SDS011;40968;52.342;5.528;2022-11-18T14:20:17;14.98;;;5.30;;
43160;SDS011;40968;52.342;5.528;2022-11-18T14:22:44;12.85;;;5.53;;
43160;SDS011;40968;52.342;5.528;2022-11-18T14:25:16;18.77;;;5.45;;
43160;SDS011;40968;52.342;5.528;2022-11-18T14:27:45;18.02;;;6.18;;
43160;SDS011;40968;52.342;5.528;2022-11-18T14:33:06;17.25;;;6.13;;
43160;SDS011;40968;52.342;5.528;2022-11-18T14:35:35;22.13;;;5.63;;
43160;SDS011;40968;52.342;5.528;2022-11-18T14:38:04;17.27;;;6.10;;
43160;SDS011;40968;52.342;5.528;2022-11-18T14:40:38;14.02;;;5.60;;
43160;SDS011;40968;52.342;5.528;2022-11-18T14:43:04;15.20;;;5.45;;
43160;SDS011;40968;52.342;5.528;2022-11-18T14:45:31;23.13;;;6.45;;
43160;SDS011;40968;52.342;5.528;2022-11-18T14:47:58;15.20;;;6.15;;
43160;SDS011;40968;52.342;5.528;2022-11-18T14:50:25;18.58;;;6.95;;
43160;SDS011;40968;52.342;5.528;2022-11-18T14:52:51;16.83;;;6.28;;
43160;SDS011;40968;52.342;5.528;2022-11-18T14:55:18;23.55;;;6.97;;
43160;SDS011;40968;52.342;5.528;2022-11-18T14:57:46;15.13;;;5.50;;
43160;SDS011;40968;52.342;5.528;2022-11-18T15:00:13;23.77;;;7.43;;
43160;SDS011;40968;52.342;5.528;2022-11-18T15:02:41;18.98;;;6.68;;
43160;SDS011;40968;52.342;5.528;2022-11-18T15:05:07;16.88;;;6.18;;
43160;SDS011;40968;52.342;5.528;2022-11-18T15:07:35;17.10;;;6.00;;
43160;SDS011;40968;52.342;5.528;2022-11-18T15:10:02;16.75;;;5.80;;
43160;SDS011;40968;52.342;5.528;2022-11-18T15:12:29;15.82;;;6.18;;
43160;SDS011;40968;52.342;5.528;2022-11-18T15:14:57;18.52;;;6.95;;
43160;SDS011;40968;52.342;5.528;2022-11-18T15:17:23;20.38;;;7.57;;
43160;SDS011;40968;52.342;5.528;2022-11-18T15:19:50;17.73;;;6.47;;
43160;SDS011;40968;52.342;5.528;2022-11-18T15:22:17;17.23;;;6.55;;
43160;SDS011;40968;52.342;5.528;2022-11-18T15:24:43;15.77;;;6.55;;
43160;SDS011;40968;52.342;5.528;2022-11-18T15:27:10;18.05;;;6.88;;
43160;SDS011;40968;52.342;5.528;2022-11-18T15:29:36;18.25;;;6.35;;
43160;SDS011;40968;52.342;5.528;2022-11-18T15:32:04;17.48;;;7.10;;
43160;SDS011;40968;52.342;5.528;2022-11-18T15:34:31;16.33;;;6.10;;